This is the latest recevied weather packets stored in our database for station/object EA7AIS-10. If no packets are shown the sender has not sent any weather packets the latest 10 day(s).
| Time | Temp. | Humidity | Pressure | Rain* | Wind** | Luminosity | Snow |
|---|---|---|---|---|---|---|---|
| 1777671079 | 18.33° C | 82% | 1017.5 hPa | - | - | - | - |
| 1777670170 | 18.33° C | 80% | 1017.5 hPa | - | - | - | - |
| 1777669270 | 18.33° C | 79% | 1017.3 hPa | - | - | - | - |
| 1777668370 | 18.33° C | 78% | 1017.2 hPa | - | - | - | - |
| 1777667470 | 18.33° C | 77% | 1017 hPa | - | - | - | - |
| 1777666570 | 18.33° C | 77% | 1016.9 hPa | - | - | - | - |
| 1777664770 | 18.89° C | 76% | 1016.4 hPa | - | - | - | - |
| 1777663869 | 18.89° C | 75% | 1016.4 hPa | - | - | - | - |
| 1777662969 | 18.89° C | 74% | 1016.2 hPa | - | - | - | - |
| 1777662069 | 18.89° C | 74% | 1016.1 hPa | - | - | - | - |
| 1777661169 | 19.44° C | 73% | 1016 hPa | - | - | - | - |
| 1777659369 | 20° C | 67% | 1015.8 hPa | - | - | - | - |
| 1777658469 | 20.56° C | 65% | 1015.8 hPa | - | - | - | - |
| 1777657569 | 21.11° C | 62% | 1015.8 hPa | - | - | - | - |
| 1777656669 | 21.67° C | 59% | 1015.9 hPa | - | - | - | - |
| 1777655769 | 21.67° C | 57% | 1015.9 hPa | - | - | - | - |
| 1777653969 | 22.22° C | 55% | 1015.7 hPa | - | - | - | - |
| 1777653069 | 22.78° C | 53% | 1015.8 hPa | - | - | - | - |
| 1777652168 | 23.33° C | 51% | 1015.8 hPa | - | - | - | - |
| 1777651268 | 23.33° C | 50% | 1015.7 hPa | - | - | - | - |
| 1777650368 | 22.78° C | 50% | 1015.6 hPa | - | - | - | - |
| 1777647668 | 23.33° C | 48% | 1015.9 hPa | - | - | - | - |
| 1777646768 | 23.33° C | 44% | 1015.9 hPa | - | - | - | - |
| 1777645868 | 22.78° C | 47% | 1016 hPa | - | - | - | - |
| 1777644968 | 23.33° C | 40% | 1016.1 hPa | - | - | - | - |
* Rain since midnight (hover to see other rain measurements)
** Current wind speed in m/s (hover to see current wind gust speed)